sensor_id;sensor_type;location;lat;lon;timestamp;pressure;altitude;pressure_sealevel;temperature;humidity
39309;BME280;26019;47.510;19.122;2022-12-20T00:05:38;102070.59;;;-2.70;100.00
39309;BME280;26019;47.510;19.122;2022-12-20T00:15:40;102085.03;;;-2.34;100.00
39309;BME280;26019;47.510;19.122;2022-12-20T00:25:43;102088.03;;;-2.28;100.00
39309;BME280;26019;47.510;19.122;2022-12-20T00:35:45;102074.44;;;-2.41;100.00
39309;BME280;26019;47.510;19.122;2022-12-20T00:45:47;102073.16;;;-2.23;100.00
39309;BME280;26019;47.510;19.122;2022-12-20T00:55:48;102041.50;;;-2.41;100.00
39309;BME280;26019;47.510;19.122;2022-12-20T01:06:01;102032.59;;;-2.35;100.00
39309;BME280;26019;47.510;19.122;2022-12-20T01:16:10;102026.00;;;-2.33;100.00
39309;BME280;26019;47.510;19.122;2022-12-20T01:26:17;102017.75;;;-2.31;100.00
39309;BME280;26019;47.510;19.122;2022-12-20T01:36:25;102003.13;;;-2.35;100.00
39309;BME280;26019;47.510;19.122;2022-12-20T01:46:30;101979.97;;;-2.40;100.00
39309;BME280;26019;47.510;19.122;2022-12-20T01:56:33;101964.00;;;-2.38;100.00
39309;BME280;26019;47.510;19.122;2022-12-20T02:06:40;101944.09;;;-2.34;100.00
39309;BME280;26019;47.510;19.122;2022-12-20T02:17:08;101932.97;;;-2.36;100.00
39309;BME280;26019;47.510;19.122;2022-12-20T02:37:58;101930.63;;;-2.45;100.00
39309;BME280;26019;47.510;19.122;2022-12-20T02:48:07;101941.75;;;-2.43;100.00
39309;BME280;26019;47.510;19.122;2022-12-20T02:58:29;101929.53;;;-2.25;100.00
39309;BME280;26019;47.510;19.122;2022-12-20T03:08:33;101899.81;;;-2.15;100.00
39309;BME280;26019;47.510;19.122;2022-12-20T03:18:38;101896.28;;;-2.17;100.00
39309;BME280;26019;47.510;19.122;2022-12-20T03:28:40;101883.63;;;-2.17;100.00
39309;BME280;26019;47.510;19.122;2022-12-20T03:38:41;101888.25;;;-2.23;100.00
39309;BME280;26019;47.510;19.122;2022-12-20T03:48:47;101896.19;;;-2.31;100.00
39309;BME280;26019;47.510;19.122;2022-12-20T03:58:49;101885.63;;;-2.37;100.00
39309;BME280;26019;47.510;19.122;2022-12-20T04:08:50;101874.84;;;-2.46;100.00
39309;BME280;26019;47.510;19.122;2022-12-20T04:18:54;101855.88;;;-2.51;100.00
39309;BME280;26019;47.510;19.122;2022-12-20T04:28:57;101838.41;;;-2.48;100.00
39309;BME280;26019;47.510;19.122;2022-12-20T04:39:00;101829.25;;;-2.46;100.00
39309;BME280;26019;47.510;19.122;2022-12-20T04:49:06;101839.69;;;-2.30;100.00
39309;BME280;26019;47.510;19.122;2022-12-20T04:59:15;101854.34;;;-2.26;100.00
39309;BME280;26019;47.510;19.122;2022-12-20T05:09:16;101863.25;;;-2.31;100.00
39309;BME280;26019;47.510;19.122;2022-12-20T05:19:23;101866.00;;;-2.28;100.00
39309;BME280;26019;47.510;19.122;2022-12-20T05:29:26;101870.44;;;-2.25;100.00
39309;BME280;26019;47.510;19.122;2022-12-20T05:39:34;101877.69;;;-2.30;100.00
39309;BME280;26019;47.510;19.122;2022-12-20T05:49:38;101878.91;;;-2.36;100.00
39309;BME280;26019;47.510;19.122;2022-12-20T05:59:40;101865.38;;;-2.37;100.00
39309;BME280;26019;47.510;19.122;2022-12-20T06:09:46;101837.84;;;-2.44;100.00
39309;BME280;26019;47.510;19.122;2022-12-20T06:19:49;101824.06;;;-2.60;100.00
39309;BME280;26019;47.510;19.122;2022-12-20T06:29:58;101825.19;;;-2.56;100.00
39309;BME280;26019;47.510;19.122;2022-12-20T06:40:02;101817.16;;;-2.50;100.00
39309;BME280;26019;47.510;19.122;2022-12-20T06:50:06;101800.63;;;-2.45;100.00
39309;BME280;26019;47.510;19.122;2022-12-20T07:00:09;101793.13;;;-2.44;100.00
39309;BME280;26019;47.510;19.122;2022-12-20T07:10:13;101793.66;;;-2.24;100.00
39309;BME280;26019;47.510;19.122;2022-12-20T07:20:14;101792.97;;;-2.10;100.00
39309;BME280;26019;47.510;19.122;2022-12-20T07:30:18;101802.44;;;-1.70;100.00
39309;BME280;26019;47.510;19.122;2022-12-20T07:40:25;101798.44;;;-1.66;100.00
39309;BME280;26019;47.510;19.122;2022-12-20T07:50:28;101800.13;;;-1.53;100.00
39309;BME280;26019;47.510;19.122;2022-12-20T08:00:31;101800.44;;;-1.10;100.00
39309;BME280;26019;47.510;19.122;2022-12-20T08:10:36;101778.47;;;-1.23;100.00
39309;BME280;26019;47.510;19.122;2022-12-20T08:20:39;101764.13;;;-1.22;100.00
39309;BME280;26019;47.510;19.122;2022-12-20T08:30:44;101757.84;;;-1.27;100.00
39309;BME280;26019;47.510;19.122;2022-12-20T08:40:48;101753.56;;;-0.34;100.00
39309;BME280;26019;47.510;19.122;2022-12-20T08:50:55;101761.84;;;0.49;100.00
39309;BME280;26019;47.510;19.122;2022-12-20T09:00:58;101735.63;;;0.80;100.00
39309;BME280;26019;47.510;19.122;2022-12-20T09:11:13;101743.22;;;0.95;100.00
39309;BME280;26019;47.510;19.122;2022-12-20T09:21:19;101740.75;;;1.74;97.16
39309;BME280;26019;47.510;19.122;2022-12-20T09:31:23;101726.16;;;2.91;84.26
39309;BME280;26019;47.510;19.122;2022-12-20T09:41:33;101716.94;;;3.50;76.56
39309;BME280;26019;47.510;19.122;2022-12-20T10:01:48;101692.22;;;4.08;71.14
39309;BME280;26019;47.510;19.122;2022-12-20T10:12:08;101681.56;;;4.82;63.93
39309;BME280;26019;47.510;19.122;2022-12-20T10:22:22;101660.28;;;5.77;58.74
39309;BME280;26019;47.510;19.122;2022-12-20T10:32:28;101639.53;;;5.71;59.41
39309;BME280;26019;47.510;19.122;2022-12-20T10:42:38;101617.44;;;8.40;50.24
39309;BME280;26019;47.510;19.122;2022-12-20T10:52:45;101607.53;;;7.23;51.21
39309;BME280;26019;47.510;19.122;2022-12-20T11:03:16;101590.84;;;3.91;60.43
39309;BME280;26019;47.510;19.122;2022-12-20T11:13:23;101581.63;;;2.76;74.67
39309;BME280;26019;47.510;19.122;2022-12-20T11:33:51;101540.84;;;4.41;63.84
39309;BME280;26019;47.510;19.122;2022-12-20T11:44:08;101535.00;;;4.91;64.44
39309;BME280;26019;47.510;19.122;2022-12-20T11:54:40;101529.34;;;6.00;57.50
39309;BME280;26019;47.510;19.122;2022-12-20T12:05:05;101528.84;;;6.10;54.79
39309;BME280;26019;47.510;19.122;2022-12-20T12:15:27;101518.91;;;7.10;52.22
39309;BME280;26019;47.510;19.122;2022-12-20T12:25:37;101510.13;;;3.97;61.14
39309;BME280;26019;47.510;19.122;2022-12-20T12:46:33;101480.94;;;3.09;76.06
39309;BME280;26019;47.510;19.122;2022-12-20T12:57:09;101472.25;;;2.86;79.47
39309;BME280;26019;47.510;19.122;2022-12-20T13:07:42;101473.41;;;3.12;76.14
39309;BME280;26019;47.510;19.122;2022-12-20T13:38:52;101435.13;;;2.35;82.68
39309;BME280;26019;47.510;19.122;2022-12-20T13:49:04;101445.13;;;2.12;83.71
39309;BME280;26019;47.510;19.122;2022-12-20T13:59:36;101439.59;;;2.03;85.48
39309;BME280;26019;47.510;19.122;2022-12-20T14:09:42;101410.38;;;2.14;98.97
39309;BME280;26019;47.510;19.122;2022-12-20T14:19:47;101404.47;;;2.15;99.73
39309;BME280;26019;47.510;19.122;2022-12-20T14:29:48;101404.72;;;1.47;100.00
39309;BME280;26019;47.510;19.122;2022-12-20T14:40:17;101397.28;;;0.83;100.00
39309;BME280;26019;47.510;19.122;2022-12-20T14:50:37;101382.34;;;0.56;100.00
39309;BME280;26019;47.510;19.122;2022-12-20T15:01:39;101379.00;;;0.40;100.00
39309;BME280;26019;47.510;19.122;2022-12-20T15:11:21;101385.66;;;0.22;100.00
39309;BME280;26019;47.510;19.122;2022-12-20T15:21:30;101384.09;;;0.24;100.00
39309;BME280;26019;47.510;19.122;2022-12-20T15:31:34;101366.13;;;0.21;100.00
39309;BME280;26019;47.510;19.122;2022-12-20T15:41:45;101390.81;;;0.07;100.00
39309;BME280;26019;47.510;19.122;2022-12-20T15:51:50;101399.63;;;0.13;100.00
39309;BME280;26019;47.510;19.122;2022-12-20T16:01:53;101384.53;;;0.17;100.00
39309;BME280;26019;47.510;19.122;2022-12-20T16:11:58;101380.47;;;0.04;100.00
39309;BME280;26019;47.510;19.122;2022-12-20T16:22:02;101390.88;;;0.08;100.00
39309;BME280;26019;47.510;19.122;2022-12-20T16:32:14;101376.06;;;0.01;100.00
39309;BME280;26019;47.510;19.122;2022-12-20T16:42:18;101377.19;;;-0.10;100.00
39309;BME280;26019;47.510;19.122;2022-12-20T16:52:23;101368.88;;;-0.23;100.00
39309;BME280;26019;47.510;19.122;2022-12-20T17:02:28;101355.03;;;-0.28;100.00
39309;BME280;26019;47.510;19.122;2022-12-20T17:12:33;101338.34;;;-0.39;100.00
39309;BME280;26019;47.510;19.122;2022-12-20T17:22:36;101335.81;;;-0.39;100.00
39309;BME280;26019;47.510;19.122;2022-12-20T17:32:38;101333.19;;;-0.41;100.00
39309;BME280;26019;47.510;19.122;2022-12-20T17:42:41;101346.59;;;-0.43;100.00
39309;BME280;26019;47.510;19.122;2022-12-20T17:52:44;101328.03;;;-0.42;100.00
39309;BME280;26019;47.510;19.122;2022-12-20T18:02:46;101328.97;;;-0.40;100.00
39309;BME280;26019;47.510;19.122;2022-12-20T18:12:53;101326.16;;;-0.45;100.00
39309;BME280;26019;47.510;19.122;2022-12-20T18:22:55;101300.53;;;-0.50;100.00
39309;BME280;26019;47.510;19.122;2022-12-20T18:32:57;101299.81;;;-0.47;100.00
39309;BME280;26019;47.510;19.122;2022-12-20T18:42:59;101284.97;;;-0.56;100.00
39309;BME280;26019;47.510;19.122;2022-12-20T18:53:08;101271.59;;;-0.68;100.00
39309;BME280;26019;47.510;19.122;2022-12-20T19:03:12;101277.13;;;-0.76;100.00
39309;BME280;26019;47.510;19.122;2022-12-20T19:13:16;101273.00;;;-0.73;100.00
39309;BME280;26019;47.510;19.122;2022-12-20T19:23:18;101255.44;;;-0.85;100.00
39309;BME280;26019;47.510;19.122;2022-12-20T19:33:21;101240.47;;;-0.81;100.00
39309;BME280;26019;47.510;19.122;2022-12-20T19:43:24;101245.94;;;-0.73;100.00
39309;BME280;26019;47.510;19.122;2022-12-20T19:53:26;101253.50;;;-0.74;100.00
39309;BME280;26019;47.510;19.122;2022-12-20T20:03:30;101275.91;;;-0.67;100.00
39309;BME280;26019;47.510;19.122;2022-12-20T20:13:35;101263.72;;;-0.73;100.00
39309;BME280;26019;47.510;19.122;2022-12-20T20:23:38;101260.81;;;-0.64;100.00
39309;BME280;26019;47.510;19.122;2022-12-20T20:33:45;101258.09;;;-0.52;100.00
39309;BME280;26019;47.510;19.122;2022-12-20T20:43:49;101245.63;;;-0.31;100.00
39309;BME280;26019;47.510;19.122;2022-12-20T20:53:55;101249.94;;;-0.30;100.00
39309;BME280;26019;47.510;19.122;2022-12-20T21:03:58;101232.69;;;-0.36;100.00
39309;BME280;26019;47.510;19.122;2022-12-20T21:14:00;101215.22;;;-0.46;100.00
39309;BME280;26019;47.510;19.122;2022-12-20T21:24:03;101218.47;;;-0.49;100.00
39309;BME280;26019;47.510;19.122;2022-12-20T21:34:06;101208.94;;;-0.53;100.00
39309;BME280;26019;47.510;19.122;2022-12-20T21:44:09;101213.84;;;-0.56;100.00
39309;BME280;26019;47.510;19.122;2022-12-20T21:54:11;101180.22;;;-0.52;100.00
39309;BME280;26019;47.510;19.122;2022-12-20T22:04:14;101166.38;;;-0.73;100.00
39309;BME280;26019;47.510;19.122;2022-12-20T22:14:19;101164.31;;;-0.64;100.00
39309;BME280;26019;47.510;19.122;2022-12-20T22:24:21;101138.63;;;-0.54;100.00
39309;BME280;26019;47.510;19.122;2022-12-20T22:34:23;101122.13;;;-0.62;100.00
39309;BME280;26019;47.510;19.122;2022-12-20T22:44:28;101106.69;;;-0.50;100.00
39309;BME280;26019;47.510;19.122;2022-12-20T22:54:30;101088.81;;;-0.52;100.00
39309;BME280;26019;47.510;19.122;2022-12-20T23:04:31;101082.28;;;-0.47;100.00
39309;BME280;26019;47.510;19.122;2022-12-20T23:14:38;101065.00;;;-0.54;100.00
39309;BME280;26019;47.510;19.122;2022-12-20T23:25:16;101060.88;;;-0.52;100.00
39309;BME280;26019;47.510;19.122;2022-12-20T23:35:19;101059.59;;;-0.43;100.00
39309;BME280;26019;47.510;19.122;2022-12-20T23:45:21;101048.38;;;-0.31;100.00
39309;BME280;26019;47.510;19.122;2022-12-20T23:55:22;101021.59;;;-0.24;100.00
